Terminal Aerodrome Forecast
Issued by NWS Spokane, WA

Home | Current Version | Previous Version | Text Only | Print | Product List | Glossary On
Versions: 1 2 3 4 5 6 7 8 9 10 11 12 13 14 15 16 17 18 19 20 21 22 23 24 25 26 27 28 29 30 31 32 33 34 35 36 37 38 39 40 41 42 43 44 45
000
FTUS46 KOTX 270523
TAFGEG
TAF
KGEG 270523Z 2706/2806 08005KT P6SM BCFG SCT002 BKN200
     FM271300 17006KT 5SM -SN OVC020
     FM271500 17007KT 1SM -SN BKN012 OVC020
     FM271700 17006KT 1/2SM SN FG OVC007
     FM272100 20005KT 1SM -SN BR BKN008 OVC012
     FM280400 23008KT 3SM -SHSN BKN009 OVC015=

USA.gov is the U.S. government's official web portal to all federal, state and local government web resources and services.